Time;durP1;ratioP1;P1;durP2;ratioP2;P2;SDS_P1;SDS_P2;PMS_P1;PMS_P2;Temp;Humidity;BMP_temperature;BMP_pressure;BME280_temperature;BME280_humidity;BME280_pressure;Samples;Min_cycle;Max_cycle;Signal;HPM_P1;HPM_P2
2023/09/21 00:00:20;;;;;;;0.10;0.10;;;;;;;26.69;46.57;100005.66;5029164;28;20055;-74
2023/09/21 00:02:50;;;;;;;0.00;0.00;;;;;;;26.68;46.61;100006.00;5047876;28;20033;-73
2023/09/21 00:05:21;;;;;;;0.00;0.00;;;;;;;26.38;47.35;100000.06;5049202;28;20400;-72
2023/09/21 00:07:47;;;;;;;0.00;0.00;;;;;;;26.75;46.54;99992.47;5049371;28;20044;-74
2023/09/21 00:10:13;;;;;;;0.08;0.08;;;;;;;26.37;47.38;99992.13;5049212;28;20025;-74
2023/09/21 00:12:39;;;;;;;0.08;0.08;;;;;;;26.54;47.33;99989.06;5049238;28;20029;-73
2023/09/21 00:15:06;;;;;;;0.10;0.10;;;;;;;26.33;47.23;99986.53;5037393;28;20017;-74
2023/09/21 00:17:33;;;;;;;0.10;0.10;;;;;;;26.26;47.90;99991.06;5021278;28;20080;-73
2023/09/21 00:20:10;;;;;;;0.10;0.10;;;;;;;26.47;47.17;99977.88;5029149;28;20084;-73
2023/09/21 00:22:36;;;;;;;0.10;0.10;;;;;;;26.48;47.13;99979.44;5029709;28;20330;-73
2023/09/21 00:25:07;;;;;;;0.00;0.00;;;;;;;25.89;48.34;99979.28;5045044;28;20559;-72
2023/09/21 00:27:33;;;;;;;0.10;0.10;;;;;;;26.60;46.66;99973.88;5049046;28;20536;-73
2023/09/21 00:29:58;;;;;;;0.00;0.00;;;;;;;26.04;47.94;99973.06;5049418;28;20024;-73
2023/09/21 00:32:25;;;;;;;0.10;0.10;;;;;;;26.22;47.45;99968.88;5049030;28;20401;-73
2023/09/21 00:34:52;;;;;;;0.10;0.10;;;;;;;26.33;47.32;99963.69;5048964;28;20128;-73
2023/09/21 00:37:17;;;;;;;0.00;0.00;;;;;;;26.61;46.71;99961.72;5048727;28;20029;-74
2023/09/21 00:39:43;;;;;;;0.10;0.10;;;;;;;26.07;47.43;99956.69;5048963;28;20083;-73
2023/09/21 00:42:08;;;;;;;0.00;0.00;;;;;;;25.98;47.94;99955.19;5048723;28;20239;-73
2023/09/21 00:44:33;;;;;;;0.03;0.03;;;;;;;26.56;46.85;99951.75;5049289;28;20044;-72
2023/09/21 00:47:00;;;;;;;0.10;0.10;;;;;;;26.16;47.20;99941.97;5030640;28;20544;-72
2023/09/21 00:49:26;;;;;;;0.00;0.00;;;;;;;26.56;46.18;99935.22;5048812;28;20040;-74
2023/09/21 00:51:55;;;;;;;0.00;0.00;;;;;;;26.54;46.20;99933.94;5048859;28;20396;-74
2023/09/21 00:54:21;;;;;;;0.00;0.00;;;;;;;26.25;46.91;99935.16;5048664;28;20021;-74
2023/09/21 00:56:48;;;;;;;0.00;0.00;;;;;;;26.48;46.44;99927.91;5049184;28;20025;-73
2023/09/21 00:59:15;;;;;;;0.00;0.00;;;;;;;26.69;45.82;99927.69;5068870;28;20544;-73
2023/09/21 01:01:41;;;;;;;0.00;0.00;;;;;;;26.71;45.70;99920.66;5068552;28;20135;-73
2023/09/21 01:04:10;;;;;;;0.10;0.10;;;;;;;26.78;45.85;99909.03;5068556;28;20036;-73
2023/09/21 01:06:36;;;;;;;0.10;0.10;;;;;;;25.57;48.66;99920.50;5068507;28;20032;-74
2023/09/21 01:09:04;;;;;;;0.00;0.00;;;;;;;26.27;47.28;99910.81;5069038;28;20020;-72
2023/09/21 01:11:30;;;;;;;0.08;0.08;;;;;;;26.41;47.12;99916.69;5070997;28;20131;-74
2023/09/21 01:13:55;;;;;;;0.10;0.10;;;;;;;26.43;46.76;99908.06;5072466;28;20040;-73
2023/09/21 01:16:24;;;;;;;0.00;0.00;;;;;;;26.17;47.12;99910.50;5053948;28;20090;-73
2023/09/21 01:18:52;;;;;;;0.10;0.10;;;;;;;26.43;46.71;99910.84;5072427;28;20509;-74
2023/09/21 01:21:25;;;;;;;0.00;0.00;;;;;;;26.43;46.31;99903.38;5072577;28;20025;-73
2023/09/21 01:23:52;;;;;;;0.08;0.08;;;;;;;26.69;45.94;99903.66;5066279;28;20025;-73
2023/09/21 01:26:18;;;;;;;0.10;0.10;;;;;;;25.82;47.63;99902.00;5052149;28;20056;-73
2023/09/21 01:28:47;;;;;;;0.10;0.10;;;;;;;26.68;45.71;99895.75;5051979;28;20499;-73
2023/09/21 01:31:13;;;;;;;0.10;0.10;;;;;;;26.18;47.02;99890.84;5034405;28;20029;-74
2023/09/21 01:33:39;;;;;;;0.00;0.00;;;;;;;26.44;46.44;99888.44;5052022;28;20040;-73
2023/09/21 01:36:08;;;;;;;0.00;0.00;;;;;;;26.33;45.97;99884.59;5052704;28;20451;-73
2023/09/21 01:38:34;;;;;;;0.00;0.00;;;;;;;26.56;45.76;99880.09;5052024;28;20037;-72
2023/09/21 01:41:00;;;;;;;0.00;0.00;;;;;;;26.65;45.63;99880.69;5036203;28;20043;-72
2023/09/21 01:43:26;;;;;;;0.10;0.10;;;;;;;26.12;46.87;99881.28;5032181;28;20037;-74
2023/09/21 01:45:52;;;;;;;0.00;0.00;;;;;;;26.55;45.54;99875.75;5032210;28;20099;-73
2023/09/21 01:48:20;;;;;;;0.05;0.05;;;;;;;26.43;45.49;99873.06;5033780;28;20029;-73
2023/09/21 01:50:50;;;;;;;0.00;0.00;;;;;;;26.69;44.94;99873.31;5052675;28;20044;-73
2023/09/21 01:53:18;;;;;;;0.03;0.03;;;;;;;26.47;45.42;99870.41;5053389;28;20120;-73
2023/09/21 01:55:44;;;;;;;0.00;0.00;;;;;;;26.06;46.26;99863.41;5071762;28;20075;-73
2023/09/21 01:58:10;;;;;;;0.00;0.00;;;;;;;26.69;45.57;99858.75;5072161;28;20111;-73
2023/09/21 02:00:39;;;;;;;0.00;0.00;;;;;;;26.58;45.58;99849.41;5071964;28;20423;-73
2023/09/21 02:03:08;;;;;;;0.03;0.03;;;;;;;26.63;45.31;99852.69;5072249;28;20051;-74
2023/09/21 02:05:34;;;;;;;0.00;0.00;;;;;;;26.11;46.06;99843.84;5071906;28;20045;-74
2023/09/21 02:08:00;;;;;;;0.00;0.00;;;;;;;26.51;45.49;99840.97;5053570;28;20403;-74
2023/09/21 02:10:25;;;;;;;0.00;0.00;;;;;;;26.38;45.65;99845.75;5071250;28;20036;-74
2023/09/21 02:12:55;;;;;;;0.00;0.00;;;;;;;26.54;45.33;99854.03;5071523;28;20035;-75
2023/09/21 02:15:21;;;;;;;0.00;0.00;;;;;;;26.01;46.64;99847.09;5071172;28;20079;-74
2023/09/21 02:17:46;;;;;;;0.00;0.00;;;;;;;26.08;45.99;99834.34;5071769;28;20048;-74
2023/09/21 02:20:16;;;;;;;0.00;0.00;;;;;;;26.30;45.69;99835.69;5071207;28;20140;-72
2023/09/21 02:22:44;;;;;;;0.10;0.10;;;;;;;26.45;45.62;99839.63;5071118;28;20033;-74
2023/09/21 02:25:13;;;;;;;0.03;0.03;;;;;;;26.47;45.37;99837.31;5044351;28;21294;-74
2023/09/21 02:27:40;;;;;;;0.10;0.10;;;;;;;25.70;47.55;99834.03;5031111;28;20044;-74
2023/09/21 02:30:08;;;;;;;0.10;0.10;;;;;;;25.93;47.21;99840.59;5030829;28;20116;-72
2023/09/21 02:32:34;;;;;;;0.10;0.10;;;;;;;26.41;45.58;99830.47;5051449;28;20036;-73
2023/09/21 02:35:03;;;;;;;0.08;0.08;;;;;;;25.70;47.19;99836.78;5050752;28;20029;-73
2023/09/21 02:37:28;;;;;;;0.00;0.00;;;;;;;25.63;47.50;99828.31;5050624;28;20069;-74
2023/09/21 02:39:54;;;;;;;0.10;0.10;;;;;;;26.03;46.93;99834.56;5050696;28;20036;-74
2023/09/21 02:42:19;;;;;;;0.00;0.00;;;;;;;26.49;45.52;99824.81;5050930;28;20033;-73
2023/09/21 02:44:46;;;;;;;0.00;0.00;;;;;;;25.37;48.06;99821.63;5051237;28;20021;-73
2023/09/21 02:47:11;;;;;;;0.10;0.10;;;;;;;25.59;47.92;99819.16;5050747;28;20227;-75
2023/09/21 02:49:36;;;;;;;0.10;0.10;;;;;;;25.98;47.35;99825.78;5052973;28;20037;-73
2023/09/21 02:52:04;;;;;;;0.10;0.10;;;;;;;26.04;46.76;99822.38;5070794;28;20036;-73
2023/09/21 02:54:30;;;;;;;0.10;0.10;;;;;;;26.06;46.82;99824.84;5070825;28;20129;-74
2023/09/21 02:56:55;;;;;;;0.00;0.00;;;;;;;26.33;45.68;99821.22;5062633;28;20048;-74
2023/09/21 02:59:22;;;;;;;0.10;0.10;;;;;;;26.14;46.29;99818.38;5069549;28;20495;-73
2023/09/21 03:01:47;;;;;;;0.10;0.10;;;;;;;25.29;48.88;99820.59;5070262;28;20441;-73
2023/09/21 03:04:13;;;;;;;0.00;0.00;;;;;;;25.73;47.65;99819.56;5070610;28;20094;-73
2023/09/21 03:06:38;;;;;;;0.10;0.10;;;;;;;25.71;47.95;99826.59;5070261;28;20406;-73
2023/09/21 03:09:05;;;;;;;0.10;0.10;;;;;;;25.03;49.61;99828.44;5070988;28;20024;-74
2023/09/21 03:11:30;;;;;;;0.00;0.00;;;;;;;25.23;49.13;99822.00;5070664;28;20080;-74
2023/09/21 03:13:56;;;;;;;0.10;0.10;;;;;;;26.05;46.77;99820.44;5070018;28;20530;-74
2023/09/21 03:16:21;;;;;;;0.10;0.10;;;;;;;25.53;48.01;99820.56;5052169;28;20040;-73
2023/09/21 03:18:47;;;;;;;0.10;0.10;;;;;;;26.02;46.83;99810.16;5070364;28;20033;-75
2023/09/21 03:21:15;;;;;;;0.03;0.03;;;;;;;26.09;46.30;99816.69;5070463;28;20027;-73
2023/09/21 03:23:41;;;;;;;0.00;0.00;;;;;;;25.96;46.68;99812.34;5065291;28;20025;-73
2023/09/21 03:26:11;;;;;;;0.00;0.00;;;;;;;25.81;47.47;99815.06;5033499;28;20079;-73
2023/09/21 03:28:37;;;;;;;0.10;0.10;;;;;;;25.90;46.86;99810.22;5023248;28;20040;-74
2023/09/21 03:31:03;;;;;;;0.10;0.10;;;;;;;25.50;48.21;99807.50;5049705;28;20029;-73
2023/09/21 03:33:28;;;;;;;0.00;0.00;;;;;;;25.96;47.14;99809.59;5049523;28;20118;-74
2023/09/21 03:35:54;;;;;;;0.10;0.10;;;;;;;25.87;47.47;99808.16;5032498;28;20082;-75
2023/09/21 03:38:19;;;;;;;0.00;0.00;;;;;;;25.46;48.78;99803.03;5049862;28;20032;-73
2023/09/21 03:40:45;;;;;;;0.00;0.00;;;;;;;25.95;47.34;99805.25;5050124;28;20273;-74
2023/09/21 03:43:14;;;;;;;0.00;0.00;;;;;;;25.65;47.57;99804.00;5050134;28;20067;-74
2023/09/21 03:45:41;;;;;;;0.00;0.00;;;;;;;26.34;45.97;99794.50;5050172;28;20130;-74
2023/09/21 03:48:08;;;;;;;0.10;0.10;;;;;;;26.10;46.71;99792.69;5050436;28;20017;-71
2023/09/21 03:50:34;;;;;;;0.00;0.00;;;;;;;26.13;46.84;99788.41;5050619;28;20376;-75
2023/09/21 03:53:02;;;;;;;0.10;0.10;;;;;;;26.18;46.28;99790.91;5049839;28;20029;-75
2023/09/21 03:55:29;;;;;;;0.08;0.08;;;;;;;26.27;45.95;99780.53;5049485;28;20041;-74
2023/09/21 03:57:54;;;;;;;0.00;0.00;;;;;;;26.53;45.13;99778.84;5049598;28;20052;-74
2023/09/21 04:00:36;;;;;;;0.00;0.00;;;;;;;26.46;45.90;99777.84;5049559;28;20021;-73
2023/09/21 04:03:08;;;;;;;0.10;0.10;;;;;;;25.72;47.97;99778.63;5048167;28;20025;-73
2023/09/21 04:05:35;;;;;;;0.10;0.10;;;;;;;26.42;46.33;99774.19;5049225;28;20048;-74
2023/09/21 04:08:02;;;;;;;0.10;0.10;;;;;;;26.64;45.56;99763.34;5049116;28;20118;-74
2023/09/21 04:10:28;;;;;;;0.00;0.00;;;;;;;26.69;45.23;99765.03;5049180;28;20514;-73
2023/09/21 04:12:56;;;;;;;0.08;0.08;;;;;;;26.56;45.89;99755.25;5049247;28;20033;-73
2023/09/21 04:15:27;;;;;;;0.00;0.00;;;;;;;26.74;45.39;99762.03;5052348;28;20100;-74
2023/09/21 04:17:53;;;;;;;0.00;0.00;;;;;;;26.66;45.41;99761.03;5054197;28;20045;-73
2023/09/21 04:20:19;;;;;;;0.00;0.00;;;;;;;26.57;46.07;99765.13;5049473;28;20125;-74
2023/09/21 04:22:47;;;;;;;0.03;0.03;;;;;;;26.57;45.76;99759.63;5049297;28;20071;-73
2023/09/21 04:25:16;;;;;;;0.00;0.00;;;;;;;26.82;45.63;99761.03;5034745;28;20571;-74
2023/09/21 04:27:43;;;;;;;0.10;0.10;;;;;;;26.54;45.84;99747.34;5042752;28;20494;-74
2023/09/21 04:30:11;;;;;;;0.00;0.00;;;;;;;26.28;46.46;99749.06;5029346;28;20056;-73
2023/09/21 04:32:37;;;;;;;0.10;0.10;;;;;;;26.13;46.43;99742.41;5029720;28;20096;-74
2023/09/21 04:35:06;;;;;;;0.00;0.00;;;;;;;26.69;45.02;99746.53;5029102;28;20025;-74
2023/09/21 04:37:34;;;;;;;0.08;0.00;;;;;;;26.82;44.33;99750.00;5028669;28;20041;-73
2023/09/21 04:40:04;;;;;;;0.10;0.10;;;;;;;26.69;45.32;99749.28;5025524;28;20413;-73
2023/09/21 04:42:29;;;;;;;0.00;0.00;;;;;;;26.67;44.97;99742.53;5058534;28;20032;-74
2023/09/21 04:44:55;;;;;;;0.00;0.00;;;;;;;27.03;44.51;99749.69;5060213;28;20025;-74
2023/09/21 04:47:21;;;;;;;0.00;0.00;;;;;;;27.09;44.29;99739.94;5061922;28;20115;-74
2023/09/21 04:49:48;;;;;;;0.00;0.00;;;;;;;26.93;45.09;99745.50;5062992;28;20045;-73
2023/09/21 04:52:13;;;;;;;0.00;0.00;;;;;;;26.52;45.94;99746.09;5043432;28;20135;-73
2023/09/21 04:54:39;;;;;;;0.00;0.00;;;;;;;26.83;45.08;99746.88;5063517;28;20041;-73
2023/09/21 04:57:04;;;;;;;0.10;0.10;;;;;;;26.59;45.89;99749.03;5061509;28;20020;-74
2023/09/21 04:59:29;;;;;;;0.10;0.10;;;;;;;26.34;46.54;99758.69;5062569;28;20541;-74
2023/09/21 05:01:55;;;;;;;0.00;0.00;;;;;;;26.02;47.00;99755.84;5061515;28;20033;-74
2023/09/21 05:04:21;;;;;;;0.10;0.10;;;;;;;26.17;46.66;99761.75;5063634;28;20751;-74
2023/09/21 05:06:46;;;;;;;0.00;0.00;;;;;;;25.65;48.45;99762.72;5060418;28;20044;-73
2023/09/21 05:09:12;;;;;;;0.10;0.10;;;;;;;25.60;48.51;99760.22;5061685;28;20017;-72
2023/09/21 05:11:40;;;;;;;0.00;0.00;;;;;;;25.66;48.76;99758.84;5064995;28;20033;-74
2023/09/21 05:14:06;;;;;;;0.10;0.10;;;;;;;26.56;46.37;99758.00;5043834;28;20380;-74
2023/09/21 05:16:35;;;;;;;0.05;0.05;;;;;;;26.26;46.87;99759.66;5060510;28;20110;-73
2023/09/21 05:19:00;;;;;;;0.00;0.00;;;;;;;25.71;48.58;99768.78;5057785;28;20068;-73
2023/09/21 05:21:26;;;;;;;0.00;0.00;;;;;;;26.57;46.16;99756.88;5067756;28;20044;-73
2023/09/21 05:23:52;;;;;;;0.10;0.10;;;;;;;26.50;46.21;99756.69;5067949;28;20020;-74
2023/09/21 05:26:17;;;;;;;0.05;0.05;;;;;;;26.51;46.44;99758.31;5055493;28;20116;-74
2023/09/21 05:28:44;;;;;;;0.00;0.00;;;;;;;26.28;46.66;99766.38;5063490;28;20507;-72
2023/09/21 05:31:09;;;;;;;0.10;0.10;;;;;;;25.54;49.02;99758.06;5060016;28;20115;-73
2023/09/21 05:33:38;;;;;;;0.00;0.00;;;;;;;26.03;48.08;99762.97;5062923;28;20033;-74
2023/09/21 05:36:07;;;;;;;0.10;0.10;;;;;;;26.21;47.27;99755.19;5064371;28;20438;-73
2023/09/21 05:38:32;;;;;;;0.00;0.00;;;;;;;26.25;46.98;99752.53;5058531;28;20055;-72
2023/09/21 05:41:02;;;;;;;0.00;0.00;;;;;;;26.57;46.26;99757.69;5061850;28;20032;-74
2023/09/21 05:43:29;;;;;;;0.00;0.00;;;;;;;26.56;46.10;99749.75;5062872;28;20024;-73
2023/09/21 05:45:54;;;;;;;0.10;0.10;;;;;;;26.54;46.11;99752.06;5052175;28;20668;-73
2023/09/21 05:48:20;;;;;;;0.10;0.10;;;;;;;26.89;45.10;99747.41;5052018;28;20084;-74
2023/09/21 05:50:45;;;;;;;0.10;0.10;;;;;;;27.48;44.14;99749.88;5058756;28;20487;-73
2023/09/21 05:53:11;;;;;;;0.00;0.00;;;;;;;27.70;43.48;99755.44;5060372;28;20029;-73
2023/09/21 05:55:37;;;;;;;0.00;0.00;;;;;;;26.81;45.31;99759.44;5068374;28;20037;-74
2023/09/21 05:58:04;;;;;;;0.00;0.00;;;;;;;27.21;44.44;99748.09;5053044;28;20032;-73
2023/09/21 06:00:30;;;;;;;0.00;0.00;;;;;;;27.38;44.41;99751.25;5060698;28;20036;-73
2023/09/21 06:02:55;;;;;;;0.00;0.00;;;;;;;27.08;44.90;99758.47;5062602;28;20044;-72
2023/09/21 06:05:21;;;;;;;0.10;0.10;;;;;;;27.38;44.36;99756.78;5057106;28;20044;-73
2023/09/21 06:07:46;;;;;;;0.00;0.00;;;;;;;27.26;44.55;99753.34;5056764;28;20029;-73
2023/09/21 06:10:11;;;;;;;0.00;0.00;;;;;;;27.64;43.46;99754.16;5050889;28;20037;-74
2023/09/21 06:12:37;;;;;;;0.00;0.00;;;;;;;27.14;45.46;99748.75;5033696;28;20040;-74
2023/09/21 06:15:05;;;;;;;0.00;0.00;;;;;;;26.90;45.89;99755.34;5051714;28;20429;-73
2023/09/21 06:17:31;;;;;;;0.05;0.05;;;;;;;26.81;45.42;99754.72;5051377;28;20117;-74
2023/09/21 06:19:57;;;;;;;0.00;0.00;;;;;;;27.67;43.82;99750.66;5066205;28;20037;-73
2023/09/21 06:22:23;;;;;;;0.00;0.00;;;;;;;27.05;46.25;99753.66;5051180;28;20048;-72
2023/09/21 06:24:49;;;;;;;0.00;0.00;;;;;;;26.85;46.95;99752.84;5051203;28;20037;-73
2023/09/21 06:27:15;;;;;;;0.00;0.00;;;;;;;27.10;46.05;99744.31;5052111;28;20082;-74
2023/09/21 06:29:41;;;;;;;0.00;0.00;;;;;;;26.96;46.47;99742.06;5063187;28;20021;-74
2023/09/21 06:32:07;;;;;;;0.00;0.00;;;;;;;27.30;45.44;99746.72;5067788;28;20028;-73
2023/09/21 06:34:33;;;;;;;0.00;0.00;;;;;;;26.87;46.27;99745.00;5071199;28;20029;-72
2023/09/21 06:36:59;;;;;;;0.00;0.00;;;;;;;27.15;46.20;99735.75;5071412;28;20114;-74
2023/09/21 06:39:25;;;;;;;0.00;0.00;;;;;;;27.13;46.17;99741.63;5071911;28;20024;-73
2023/09/21 06:41:50;;;;;;;0.00;0.00;;;;;;;26.91;46.47;99745.88;5071985;28;20024;-73
2023/09/21 06:44:18;;;;;;;0.00;0.00;;;;;;;27.40;45.86;99737.09;5071489;28;20090;-73
2023/09/21 06:46:43;;;;;;;0.00;0.00;;;;;;;27.56;45.41;99741.38;5061188;28;20539;-74
2023/09/21 06:49:09;;;;;;;0.00;0.00;;;;;;;27.49;45.58;99746.75;5051159;28;20059;-74
2023/09/21 06:51:35;;;;;;;0.00;0.00;;;;;;;27.83;44.42;99747.00;5050704;28;20048;-74
2023/09/21 06:54:00;;;;;;;0.00;0.00;;;;;;;27.61;44.89;99743.03;5051093;28;20029;-74
2023/09/21 06:56:29;;;;;;;0.00;0.00;;;;;;;27.81;45.05;99739.88;5050446;28;20041;-73
2023/09/21 06:58:56;;;;;;;0.00;0.00;;;;;;;27.08;47.91;99739.16;5050864;28;20041;-72
2023/09/21 07:01:22;;;;;;;0.00;0.00;;;;;;;26.71;49.39;99746.22;5050721;28;20116;-74
2023/09/21 07:03:48;;;;;;;0.00;0.00;;;;;;;27.11;48.58;99740.38;5050543;28;20108;-73
2023/09/21 07:06:14;;;;;;;0.00;0.00;;;;;;;26.61;50.45;99743.97;5050173;28;20017;-74
2023/09/21 07:08:40;;;;;;;0.00;0.00;;;;;;;26.95;49.11;99752.28;5049983;28;20471;-72
2023/09/21 07:11:05;;;;;;;0.10;0.10;;;;;;;26.94;50.21;99755.41;5050474;28;20126;-73
2023/09/21 07:13:31;;;;;;;0.00;0.00;;;;;;;26.20;52.59;99758.31;5050560;28;20080;-73
2023/09/21 07:15:58;;;;;;;0.00;0.00;;;;;;;26.77;50.97;99755.81;5062023;28;20075;-73
2023/09/21 07:18:25;;;;;;;0.00;0.00;;;;;;;26.67;51.26;99751.59;5049923;28;20056;-73
2023/09/21 07:20:50;;;;;;;0.08;0.08;;;;;;;27.38;49.79;99758.75;5050948;28;20459;-73
2023/09/21 07:23:16;;;;;;;0.03;0.03;;;;;;;26.92;51.25;99755.78;5050311;28;20044;-73
2023/09/21 07:25:41;;;;;;;0.00;0.00;;;;;;;26.84;52.22;99764.22;5050220;28;20103;-73
2023/09/21 07:28:07;;;;;;;0.00;0.00;;;;;;;26.87;52.13;99760.75;5050110;28;20067;-74
2023/09/21 07:30:34;;;;;;;0.05;0.05;;;;;;;26.71;53.17;99760.78;5050190;28;20492;-73
2023/09/21 07:33:04;;;;;;;0.00;0.00;;;;;;;26.19;53.72;99753.94;5050519;28;20029;-74
2023/09/21 07:35:30;;;;;;;0.10;0.10;;;;;;;26.31;54.16;99768.44;5049832;28;20040;-73
2023/09/21 07:37:55;;;;;;;0.10;0.10;;;;;;;24.79;58.56;99770.72;5049916;28;20430;-74
2023/09/21 07:40:21;;;;;;;0.00;0.00;;;;;;;24.30;60.06;99761.66;5049787;28;20041;-72
2023/09/21 07:42:49;;;;;;;0.10;0.10;;;;;;;25.00;58.60;99771.41;5049754;28;20051;-73
2023/09/21 07:45:15;;;;;;;0.10;0.10;;;;;;;25.04;59.83;99775.84;5048376;28;20463;-74
2023/09/21 07:47:40;;;;;;;0.00;0.00;;;;;;;25.42;58.40;99769.94;5064096;28;20028;-71
2023/09/21 07:50:06;;;;;;;0.10;0.10;;;;;;;25.13;57.76;99783.97;5069603;28;20130;-72
2023/09/21 07:52:36;;;;;;;0.10;0.10;;;;;;;25.97;57.36;99780.09;5069443;28;20513;-72
2023/09/21 07:55:03;;;;;;;0.10;0.10;;;;;;;25.37;58.68;99778.41;5051622;28;20036;-72
2023/09/21 07:57:39;;;;;;;0.10;0.10;;;;;;;25.34;59.10;99783.78;5069033;28;20031;-72
2023/09/21 08:00:06;;;;;;;0.00;0.00;;;;;;;24.98;59.66;99782.72;5069940;28;20069;-71
2023/09/21 08:02:32;;;;;;;0.10;0.10;;;;;;;25.44;58.65;99794.34;5069331;28;20141;-73
2023/09/21 08:04:58;;;;;;;0.00;0.00;;;;;;;25.48;58.96;99796.03;5054240;28;20092;-71
2023/09/21 08:07:27;;;;;;;0.10;0.10;;;;;;;25.25;59.97;99801.25;5048796;28;20045;-72
2023/09/21 08:09:57;;;;;;;0.00;0.00;;;;;;;26.02;56.95;99808.19;5049608;28;20032;-73
2023/09/21 08:12:24;;;;;;;0.00;0.00;;;;;;;25.79;58.23;99815.41;5064934;28;20044;-72
2023/09/21 08:14:50;;;;;;;0.00;0.00;;;;;;;26.02;57.31;99821.16;5049643;28;20025;-73
2023/09/21 08:17:16;;;;;;;0.10;0.10;;;;;;;25.15;60.36;99826.47;5048802;28;20195;-72
2023/09/21 08:19:41;;;;;;;0.08;0.08;;;;;;;24.75;61.86;99833.84;5048893;28;20131;-72
2023/09/21 08:22:07;;;;;;;0.10;0.10;;;;;;;25.45;60.21;99826.22;5048786;28;20037;-71
2023/09/21 08:24:36;;;;;;;0.10;0.10;;;;;;;24.79;62.18;99829.25;5036642;28;20037;-72
2023/09/21 08:27:02;;;;;;;0.10;0.10;;;;;;;23.98;65.07;99839.38;5029292;28;20030;-72
2023/09/21 08:29:27;;;;;;;0.10;0.10;;;;;;;23.40;67.25;99835.69;5028934;28;20065;-72
2023/09/21 08:31:53;;;;;;;0.00;0.00;;;;;;;23.81;67.38;99848.56;5028879;28;20038;-72
2023/09/21 08:34:21;;;;;;;0.10;0.10;;;;;;;23.21;69.36;99838.03;5029323;28;20485;-72
2023/09/21 08:36:47;;;;;;;0.20;0.20;;;;;;;24.03;65.32;99844.66;5028838;28;20510;-69
2023/09/21 08:39:12;;;;;;;0.08;0.08;;;;;;;24.61;62.87;99855.31;5029444;28;20041;-69
2023/09/21 08:41:49;;;;;;;0.10;0.10;;;;;;;24.28;62.89;99852.63;5029681;28;20029;-71
2023/09/21 08:44:14;;;;;;;0.10;0.10;;;;;;;24.39;61.98;99859.28;5029186;28;20049;-70
2023/09/21 08:46:40;;;;;;;0.10;0.10;;;;;;;23.13;67.15;99858.09;5028473;28;20053;-72
2023/09/21 08:49:10;;;;;;;0.10;0.10;;;;;;;24.50;63.05;99858.84;5029035;28;20037;-71
2023/09/21 08:51:39;;;;;;;0.10;0.10;;;;;;;22.89;68.17;99865.31;5028795;28;20421;-72
2023/09/21 08:54:06;;;;;;;0.10;0.10;;;;;;;22.22;70.49;99857.00;5039628;28;20029;-71
2023/09/21 08:56:33;;;;;;;0.10;0.10;;;;;;;22.76;68.65;99869.09;5048926;28;20080;-72
2023/09/21 08:59:00;;;;;;;0.10;0.10;;;;;;;23.07;66.70;99872.31;5049081;28;20061;-72
2023/09/21 09:01:27;;;;;;;0.10;0.10;;;;;;;23.04;67.72;99882.00;5048814;28;20128;-71
2023/09/21 09:03:53;;;;;;;0.13;0.13;;;;;;;23.75;65.18;99876.53;5048693;28;20033;-72
2023/09/21 09:06:19;;;;;;;0.10;0.10;;;;;;;23.98;64.48;99888.78;5046170;28;20071;-72
2023/09/21 09:08:47;;;;;;;0.10;0.10;;;;;;;22.48;70.31;99890.59;5029091;28;20480;-71
2023/09/21 09:11:32;;;;;;;0.10;0.10;;;;;;;22.96;68.32;99891.06;5010775;28;20068;-73
2023/09/21 09:13:57;;;;;;;0.10;0.10;;;;;;;24.06;64.12;99899.69;5029456;28;20037;-71
2023/09/21 09:16:30;;;;;;;0.20;0.20;;;;;;;23.93;64.46;99905.44;5028382;28;20201;-72
2023/09/21 09:18:57;;;;;;;0.20;0.20;;;;;;;23.50;66.23;99906.59;5009056;28;20079;-71
2023/09/21 09:21:23;;;;;;;0.20;0.20;;;;;;;22.97;68.76;99906.38;5046432;28;20037;-72
2023/09/21 09:23:49;;;;;;;0.20;0.20;;;;;;;23.48;66.48;99908.88;5029119;28;20523;-72
2023/09/21 09:26:16;;;;;;;0.10;0.10;;;;;;;23.91;64.50;99918.69;5026538;28;20033;-72
2023/09/21 09:28:41;;;;;;;0.10;0.10;;;;;;;23.57;65.91;99917.00;5054104;28;20032;-71
2023/09/21 09:31:10;;;;;;;0.13;0.13;;;;;;;23.80;64.50;99917.50;5049542;28;20447;-71
2023/09/21 09:33:36;;;;;;;0.10;0.10;;;;;;;24.41;62.37;99919.41;5048230;28;20087;-72
2023/09/21 09:36:02;;;;;;;0.10;0.10;;;;;;;24.78;60.35;99912.06;5032672;28;20334;-72
2023/09/21 09:38:28;;;;;;;0.10;0.10;;;;;;;24.67;60.95;99919.88;5051923;28;20040;-71
2023/09/21 09:40:56;;;;;;;0.10;0.10;;;;;;;24.48;61.37;99924.31;5037256;28;20041;-71
2023/09/21 09:43:27;;;;;;;0.10;0.10;;;;;;;23.69;63.58;99930.81;5042710;28;20060;-71
2023/09/21 09:45:54;;;;;;;0.10;0.10;;;;;;;23.92;62.67;99923.06;5045423;28;20582;-72
2023/09/21 09:48:23;;;;;;;0.10;0.10;;;;;;;23.60;63.38;99915.56;5032141;28;20053;-71
2023/09/21 09:50:55;;;;;;;0.10;0.10;;;;;;;24.19;62.42;99926.06;5032583;28;20041;-72
2023/09/21 09:53:23;;;;;;;0.10;0.10;;;;;;;24.20;61.14;99930.41;5031849;28;20495;-72
2023/09/21 09:55:53;;;;;;;0.10;0.10;;;;;;;24.07;62.40;99934.25;5031848;28;20037;-73
2023/09/21 09:58:20;;;;;;;0.20;0.20;;;;;;;24.46;60.26;99929.34;5031958;28;20052;-73
2023/09/21 10:00:45;;;;;;;0.10;0.10;;;;;;;23.96;62.07;99932.22;5031601;28;20025;-73
2023/09/21 10:03:11;;;;;;;0.20;0.20;;;;;;;23.58;63.55;99932.34;5032000;28;20592;-72
2023/09/21 10:05:38;;;;;;;0.10;0.10;;;;;;;22.86;66.09;99924.31;5032312;28;20036;-72
2023/09/21 10:08:06;;;;;;;0.10;0.10;;;;;;;23.42;62.87;99925.84;5064227;28;20036;-71
2023/09/21 10:10:44;;;;;;;0.10;0.10;;;;;;;23.34;63.32;99919.28;5071799;28;20040;-72
2023/09/21 10:13:11;;;;;;;0.20;0.20;;;;;;;23.51;62.95;99896.41;5071737;28;20123;-72
2023/09/21 10:15:37;;;;;;;0.10;0.10;;;;;;;24.11;60.83;99893.19;5061955;28;20045;-72
2023/09/21 10:18:04;;;;;;;0.10;0.10;;;;;;;24.62;59.58;99889.91;5032443;28;20040;-73
2023/09/21 10:20:32;;;;;;;0.10;0.10;;;;;;;24.56;59.06;99883.03;5031354;28;20129;-74
2023/09/21 10:23:09;;;;;;;0.20;0.20;;;;;;;24.27;59.69;99883.97;5031663;28;20033;-73
2023/09/21 10:25:37;;;;;;;0.17;0.17;;;;;;;24.73;58.02;99891.09;5011852;28;20129;-71
2023/09/21 10:28:22;;;;;;;0.17;0.17;;;;;;;24.12;60.74;99897.53;5011932;28;20057;-71
2023/09/21 10:30:47;;;;;;;0.10;0.10;;;;;;;24.34;59.78;99897.16;5011842;28;20125;-72
2023/09/21 10:33:13;;;;;;;0.10;0.10;;;;;;;24.72;57.98;99908.72;5011853;28;20473;-73
2023/09/21 10:35:45;;;;;;;0.10;0.10;;;;;;;23.32;62.24;99902.34;5011933;28;20101;-72
2023/09/21 10:38:12;;;;;;;0.10;0.10;;;;;;;23.05;63.79;99899.25;5011463;28;20030;-72
2023/09/21 10:40:38;;;;;;;0.13;0.13;;;;;;;24.22;60.28;99897.13;5011106;28;20030;-71
2023/09/21 10:43:40;;;;;;;0.10;0.10;;;;;;;24.19;60.73;99884.88;5011363;28;20120;-72
2023/09/21 10:46:21;;;;;;;0.10;0.10;;;;;;;23.79;61.79;99910.41;4988699;28;20545;-72
2023/09/21 10:48:49;;;;;;;0.10;0.10;;;;;;;24.18;60.74;99897.00;4988840;28;20501;-71
2023/09/21 10:51:14;;;;;;;0.10;0.10;;;;;;;24.69;58.67;99889.31;4988875;28;20033;-72
2023/09/21 10:53:41;;;;;;;0.10;0.10;;;;;;;24.86;58.10;99889.16;4989364;28;20045;-72
2023/09/21 10:56:06;;;;;;;0.10;0.10;;;;;;;24.90;57.40;99884.59;4989004;28;20042;-71
2023/09/21 10:58:32;;;;;;;0.05;0.05;;;;;;;25.05;58.62;99883.88;4988743;28;20038;-71
2023/09/21 11:01:00;;;;;;;0.10;0.10;;;;;;;25.02;56.96;99898.34;4988334;28;20041;-72
2023/09/21 11:03:27;;;;;;;0.10;0.10;;;;;;;24.81;58.41;99892.94;4991186;28;20105;-71
2023/09/21 11:05:54;;;;;;;0.10;0.10;;;;;;;24.97;57.82;99888.34;5008723;28;20037;-72
2023/09/21 11:08:21;;;;;;;0.10;0.10;;;;;;;24.34;59.45;99884.22;5026409;28;20428;-72
2023/09/21 11:10:48;;;;;;;0.10;0.10;;;;;;;24.74;58.42;99884.47;5027806;28;20539;-71
2023/09/21 11:13:17;;;;;;;0.10;0.10;;;;;;;24.81;59.50;99892.94;5028020;28;20044;-72
2023/09/21 11:15:43;;;;;;;0.10;0.10;;;;;;;25.17;58.00;99892.94;5021500;28;20038;-72
2023/09/21 11:18:09;;;;;;;0.08;0.08;;;;;;;25.08;57.77;99900.47;5008520;28;20026;-70
2023/09/21 11:20:35;;;;;;;0.10;0.10;;;;;;;24.92;58.31;99883.06;5044701;28;20040;-71
2023/09/21 11:23:02;;;;;;;0.10;0.10;;;;;;;24.62;58.09;99922.88;5069898;28;20075;-71
2023/09/21 11:25:27;;;;;;;0.10;0.10;;;;;;;24.29;59.21;99931.13;5038665;28;20038;-71
2023/09/21 11:27:56;;;;;;;0.10;0.10;;;;;;;22.67;64.44;99921.16;5030239;28;20145;-70
2023/09/21 11:30:22;;;;;;;0.10;0.10;;;;;;;21.43;69.98;99939.38;5030331;28;20021;-71
2023/09/21 11:32:50;;;;;;;0.10;0.10;;;;;;;22.51;66.49;99940.03;5030783;28;20022;-71